Time;durP1;ratioP1;P1;durP2;ratioP2;P2;SDS_P1;SDS_P2;PMS_P1;PMS_P2;Temp;Humidity;BMP_temperature;BMP_pressure;BME280_temperature;BME280_humidity;BME280_pressure;Samples;Min_cycle;Max_cycle;Signal;HPM_P1;HPM_P2
2021/10/21 00:00:49;;;;;;;;;;;;;;;21.90;52.39;98152.72;2099621;28;778;-58
2021/10/21 00:01:50;;;;;;;;;;;;;;;21.91;53.18;98156.25;2099586;28;989;-59
2021/10/21 00:02:50;;;;;;;;;;;;;;;21.93;53.12;98151.59;2099461;28;674;-59
2021/10/21 00:03:50;;;;;;;;;;;;;;;21.86;53.55;98150.38;2099533;28;905;-58
2021/10/21 00:04:50;;;;;;;;;;;;;;;21.86;54.11;98144.97;2099518;28;1020;-58
2021/10/21 00:05:50;;;;;;;;;;;;;;;21.81;52.90;98147.19;2099231;28;980;-59
2021/10/21 00:06:50;;;;;;;;;;;;;;;21.85;54.65;98148.66;2099633;28;879;-58
2021/10/21 00:07:51;;;;;;;;;;;;;;;21.84;53.41;98145.13;2099549;28;842;-59
2021/10/21 00:08:51;;;;;;;;;;;;;;;21.75;53.61;98143.16;2099508;28;778;-59
2021/10/21 00:09:51;;;;;;;;;;;;;;;21.82;53.63;98140.81;2099569;28;984;-58
2021/10/21 00:10:51;;;;;;;;;;;;;;;21.83;52.95;98139.84;2099264;28;972;-58
2021/10/21 00:11:51;;;;;;;;;;;;;;;21.80;53.93;98138.25;2100299;28;865;-59
2021/10/21 00:12:51;;;;;;;;;;;;;;;21.85;53.00;98130.66;2101043;28;972;-59
2021/10/21 00:13:52;;;;;;;;;;;;;;;21.88;52.00;98141.19;2101066;28;782;-58
2021/10/21 00:14:52;;;;;;;;;;;;;;;21.83;53.91;98138.00;2101056;28;790;-58
2021/10/21 00:15:52;;;;;;;;;;;;;;;21.86;51.98;98126.13;2100978;28;908;-59
2021/10/21 00:16:52;;;;;;;;;;;;;;;21.79;52.00;98130.28;2100781;28;790;-58
2021/10/21 00:17:53;;;;;;;;;;;;;;;21.75;53.35;98133.25;2101056;28;1882;-58
2021/10/21 00:18:53;;;;;;;;;;;;;;;21.79;53.84;98124.91;2101065;28;1051;-58
2021/10/21 00:19:54;;;;;;;;;;;;;;;21.79;52.82;98125.78;2101027;28;893;-58
2021/10/21 00:20:54;;;;;;;;;;;;;;;21.82;51.19;98127.34;2101043;28;787;-58
2021/10/21 00:21:55;;;;;;;;;;;;;;;21.84;52.31;98122.69;2100977;28;972;-58
2021/10/21 00:22:55;;;;;;;;;;;;;;;21.79;52.83;98123.06;2100995;28;992;-59
2021/10/21 00:23:55;;;;;;;;;;;;;;;21.71;54.46;98125.53;2100987;28;1136;-58
2021/10/21 00:24:55;;;;;;;;;;;;;;;21.66;53.25;98131.31;2100931;28;819;-59
2021/10/21 00:25:55;;;;;;;;;;;;;;;21.67;53.76;98124.94;2101021;28;850;-58
2021/10/21 00:26:55;;;;;;;;;;;;;;;21.69;52.99;98116.72;2100862;28;775;-58
2021/10/21 00:27:56;;;;;;;;;;;;;;;21.70;54.14;98118.44;2100793;28;850;-59
2021/10/21 00:28:56;;;;;;;;;;;;;;;21.69;52.48;98119.41;2100972;28;969;-59
2021/10/21 00:29:56;;;;;;;;;;;;;;;21.69;54.53;98114.03;2100984;28;886;-58
2021/10/21 00:30:56;;;;;;;;;;;;;;;21.70;53.71;98113.91;2100970;28;1295;-58
2021/10/21 00:31:56;;;;;;;;;;;;;;;21.72;53.50;98122.72;2100897;28;1064;-58
2021/10/21 00:32:57;;;;;;;;;;;;;;;21.71;53.96;98114.75;2100806;28;1090;-58
2021/10/21 00:33:57;;;;;;;;;;;;;;;21.71;53.75;98115.63;2100928;28;881;-58
2021/10/21 00:34:57;;;;;;;;;;;;;;;21.68;54.10;98115.00;2100911;28;1064;-58
2021/10/21 00:35:58;;;;;;;;;;;;;;;21.60;54.19;98115.59;2100886;28;839;-58
2021/10/21 00:36:58;;;;;;;;;;;;;;;21.68;53.67;98113.19;2100842;28;1220;-58
2021/10/21 00:37:58;;;;;;;;;;;;;;;21.72;53.12;98117.34;2100833;28;1957;-58
2021/10/21 00:38:58;;;;;;;;;;;;;;;21.80;52.26;98114.00;2100908;28;853;-59
2021/10/21 00:39:58;;;;;;;;;;;;;;;21.72;54.84;98113.78;2100846;28;850;-58
2021/10/21 00:40:59;;;;;;;;;;;;;;;21.68;52.88;98110.47;2100817;28;1052;-58
2021/10/21 00:41:59;;;;;;;;;;;;;;;21.75;53.22;98114.41;2100923;28;809;-59
2021/10/21 00:42:59;;;;;;;;;;;;;;;21.67;53.99;98116.84;2100916;28;793;-58
2021/10/21 00:44:11;;;;;;;;;;;;;;;21.63;53.78;98115.38;2100962;28;831;-58
2021/10/21 00:45:11;;;;;;;;;;;;;;;21.64;54.84;98114.41;2100802;28;865;-58
2021/10/21 00:46:11;;;;;;;;;;;;;;;21.68;54.15;98106.91;2100853;28;813;-58
2021/10/21 00:47:12;;;;;;;;;;;;;;;21.67;54.03;98114.16;2100722;28;1027;-59
2021/10/21 00:48:12;;;;;;;;;;;;;;;21.63;53.54;98101.91;2100941;28;813;-58
2021/10/21 00:49:13;;;;;;;;;;;;;;;21.61;54.48;98109.22;2100858;28;1036;-58
2021/10/21 00:50:13;;;;;;;;;;;;;;;21.69;53.74;98106.81;2100106;28;1574;-59
2021/10/21 00:51:14;;;;;;;;;;;;;;;21.67;53.40;98103.38;2100199;28;992;-58
2021/10/21 00:52:14;;;;;;;;;;;;;;;21.62;53.27;98106.44;2100675;28;1036;-59
2021/10/21 00:53:14;;;;;;;;;;;;;;;21.68;53.32;98105.09;2100769;28;846;-59
2021/10/21 00:54:16;;;;;;;;;;;;;;;21.71;51.52;98110.25;2100746;28;1051;-58
2021/10/21 00:55:16;;;;;;;;;;;;;;;21.66;53.81;98098.97;2100775;28;858;-59
2021/10/21 00:56:18;;;;;;;;;;;;;;;21.67;53.66;98107.91;2100606;28;1084;-59
2021/10/21 00:57:18;;;;;;;;;;;;;;;21.59;53.95;98108.50;2100664;28;909;-58
2021/10/21 00:58:19;;;;;;;;;;;;;;;21.57;53.68;98102.38;2100635;28;1901;-58
2021/10/21 00:59:19;;;;;;;;;;;;;;;21.65;54.53;98104.47;2100722;28;825;-59
2021/10/21 01:00:19;;;;;;;;;;;;;;;21.66;54.35;98108.88;2100699;28;889;-58
2021/10/21 01:01:20;;;;;;;;;;;;;;;21.64;52.80;98103.63;2100788;28;803;-58
2021/10/21 01:02:20;;;;;;;;;;;;;;;21.74;52.75;98093.81;2100696;28;1329;-58
2021/10/21 01:03:21;;;;;;;;;;;;;;;21.69;52.27;98096.03;2100406;28;842;-59
2021/10/21 01:04:21;;;;;;;;;;;;;;;21.65;53.88;98099.94;2100735;28;830;-59
2021/10/21 01:05:22;;;;;;;;;;;;;;;21.63;52.87;98101.91;2100774;28;822;-59
2021/10/21 01:06:22;;;;;;;;;;;;;;;21.59;53.75;98101.25;2100010;28;1446;-58
2021/10/21 01:07:22;;;;;;;;;;;;;;;21.67;54.30;98098.00;2099951;28;1392;-58
2021/10/21 01:08:23;;;;;;;;;;;;;;;21.67;52.35;98105.19;2100294;28;1059;-58
2021/10/21 01:09:23;;;;;;;;;;;;;;;21.66;53.38;98096.28;2100612;28;826;-59
2021/10/21 01:10:23;;;;;;;;;;;;;;;21.58;54.37;98098.69;2100688;28;1044;-58
2021/10/21 01:11:23;;;;;;;;;;;;;;;21.61;53.90;98107.38;2100605;28;1324;-59
2021/10/21 01:12:23;;;;;;;;;;;;;;;21.57;55.30;98107.75;2100597;28;885;-58
2021/10/21 01:13:23;;;;;;;;;;;;;;;21.51;53.21;98106.41;2100457;28;778;-59
2021/10/21 01:14:24;;;;;;;;;;;;;;;21.59;54.19;98100.41;2100661;28;965;-58
2021/10/21 01:15:28;;;;;;;;;;;;;;;21.58;52.70;98104.09;2100589;28;976;-59
2021/10/21 01:16:29;;;;;;;;;;;;;;;21.50;55.44;98103.84;2100568;28;996;-59
2021/10/21 01:17:29;;;;;;;;;;;;;;;21.49;53.14;98100.28;2100583;28;886;-59
2021/10/21 01:18:29;;;;;;;;;;;;;;;21.58;54.30;98099.53;2100552;28;1925;-58
2021/10/21 01:19:29;;;;;;;;;;;;;;;21.59;53.69;98095.88;2100621;28;921;-58
2021/10/21 01:20:30;;;;;;;;;;;;;;;21.52;55.34;98099.19;2100625;28;778;-58
2021/10/21 01:21:30;;;;;;;;;;;;;;;21.54;54.50;98098.06;2100116;28;838;-58
2021/10/21 01:22:30;;;;;;;;;;;;;;;21.56;53.99;98095.28;2100611;28;861;-58
2021/10/21 01:23:31;;;;;;;;;;;;;;;21.53;53.65;98092.81;2099982;28;979;-58
2021/10/21 01:24:31;;;;;;;;;;;;;;;21.47;53.99;98091.50;2100521;28;1036;-58
2021/10/21 01:25:31;;;;;;;;;;;;;;;21.54;53.87;98091.84;2100578;28;821;-58
2021/10/21 01:26:32;;;;;;;;;;;;;;;21.58;52.17;98088.78;2100529;28;906;-58
2021/10/21 01:27:32;;;;;;;;;;;;;;;21.57;53.61;98080.81;2100579;28;1005;-58
2021/10/21 01:28:32;;;;;;;;;;;;;;;21.48;54.12;98085.97;2100501;28;858;-58
2021/10/21 01:29:32;;;;;;;;;;;;;;;21.51;55.47;98087.56;2100506;28;1032;-58
2021/10/21 01:30:32;;;;;;;;;;;;;;;21.59;52.77;98084.25;2100462;28;759;-58
2021/10/21 01:31:32;;;;;;;;;;;;;;;21.57;54.05;98080.81;2100223;28;981;-58
2021/10/21 01:32:36;;;;;;;;;;;;;;;21.56;53.87;98079.13;2100049;28;826;-58
2021/10/21 01:33:36;;;;;;;;;;;;;;;21.54;54.36;98076.53;2100435;28;858;-58
2021/10/21 01:34:36;;;;;;;;;;;;;;;21.55;53.19;98077.41;2100430;28;787;-59
2021/10/21 01:35:37;;;;;;;;;;;;;;;21.57;53.97;98061.97;2100424;28;1032;-58
2021/10/21 01:36:38;;;;;;;;;;;;;;;21.52;54.42;98073.09;2100487;28;819;-58
2021/10/21 01:37:38;;;;;;;;;;;;;;;21.54;53.27;98056.84;2100385;28;1434;-58
2021/10/21 01:38:39;;;;;;;;;;;;;;;21.51;54.19;98062.47;2100354;28;1953;-58
2021/10/21 01:39:39;;;;;;;;;;;;;;;21.53;53.03;98065.91;2100222;28;837;-58
2021/10/21 01:40:39;;;;;;;;;;;;;;;21.46;53.91;98069.09;2100359;28;767;-59
2021/10/21 01:41:39;;;;;;;;;;;;;;;21.55;53.05;98067.47;2100465;28;1032;-58
2021/10/21 01:42:41;;;;;;;;;;;;;;;21.53;53.05;98058.66;2100247;28;805;-58
2021/10/21 01:43:44;;;;;;;;;;;;;;;21.60;52.48;98065.25;2100370;28;873;-58
2021/10/21 01:44:44;;;;;;;;;;;;;;;21.58;54.24;98067.22;2100521;28;803;-58
2021/10/21 01:45:45;;;;;;;;;;;;;;;21.57;52.93;98067.34;2100314;28;1344;-58
2021/10/21 01:46:45;;;;;;;;;;;;;;;21.57;54.07;98070.91;2100377;28;906;-58
2021/10/21 01:47:45;;;;;;;;;;;;;;;21.55;53.09;98069.31;2100176;28;767;-58
2021/10/21 01:48:45;;;;;;;;;;;;;;;21.51;53.13;98066.00;2100278;28;977;-58
2021/10/21 01:49:46;;;;;;;;;;;;;;;21.48;55.03;98058.19;2100475;28;826;-58
2021/10/21 01:50:46;;;;;;;;;;;;;;;21.53;53.61;98061.34;2100343;28;924;-58
2021/10/21 01:51:47;;;;;;;;;;;;;;;21.49;55.53;98062.56;2100386;28;766;-58
2021/10/21 01:52:48;;;;;;;;;;;;;;;21.44;54.74;98056.72;2100279;28;944;-58
2021/10/21 01:53:48;;;;;;;;;;;;;;;21.52;53.09;98050.72;2100131;28;1133;-58
2021/10/21 01:54:50;;;;;;;;;;;;;;;21.44;55.12;98057.56;2100249;28;1051;-58
2021/10/21 01:55:50;;;;;;;;;;;;;;;21.46;53.94;98054.78;2099976;28;1216;-58
2021/10/21 01:56:50;;;;;;;;;;;;;;;21.35;54.23;98061.00;2099982;28;821;-58
2021/10/21 01:57:51;;;;;;;;;;;;;;;21.36;55.36;98061.88;2100205;28;1909;-58
2021/10/21 01:58:51;;;;;;;;;;;;;;;21.41;55.39;98060.50;2100283;28;784;-58
2021/10/21 01:59:51;;;;;;;;;;;;;;;21.44;53.50;98060.25;2099608;28;1930;-59
2021/10/21 02:00:51;;;;;;;;;;;;;;;21.38;54.25;98057.22;2099407;28;912;-58
2021/10/21 02:01:51;;;;;;;;;;;;;;;21.38;54.92;98058.06;2099246;28;1035;-58
2021/10/21 02:02:52;;;;;;;;;;;;;;;21.43;55.37;98061.25;2100286;28;1055;-58
2021/10/21 02:03:52;;;;;;;;;;;;;;;21.44;52.89;98060.25;2100216;28;863;-59
2021/10/21 02:04:52;;;;;;;;;;;;;;;21.47;54.65;98064.56;2100161;28;777;-58
2021/10/21 02:05:52;;;;;;;;;;;;;;;21.43;54.08;98071.19;2100194;28;1039;-59
2021/10/21 02:06:52;;;;;;;;;;;;;;;21.39;54.25;98067.84;2100145;28;920;-58
2021/10/21 02:07:53;;;;;;;;;;;;;;;21.35;55.49;98077.16;2099903;28;889;-58
2021/10/21 02:08:53;;;;;;;;;;;;;;;21.46;54.07;98068.25;2100254;28;798;-59
2021/10/21 02:09:53;;;;;;;;;;;;;;;21.41;53.41;98062.38;2100153;28;1007;-58
2021/10/21 02:10:53;;;;;;;;;;;;;;;21.47;53.96;98067.25;2100201;28;854;-58
2021/10/21 02:11:53;;;;;;;;;;;;;;;21.42;54.41;98064.91;2100210;28;964;-58
2021/10/21 02:12:53;;;;;;;;;;;;;;;21.37;54.38;98063.59;2100019;28;1035;-58
2021/10/21 02:13:53;;;;;;;;;;;;;;;21.42;54.39;98067.63;2100081;28;763;-59
2021/10/21 02:14:54;;;;;;;;;;;;;;;21.33;55.62;98062.97;2100054;28;1042;-59
2021/10/21 02:15:54;;;;;;;;;;;;;;;21.38;53.98;98058.06;2099960;28;954;-58
2021/10/21 02:16:54;;;;;;;;;;;;;;;21.40;54.20;98058.81;2100121;28;846;-59
2021/10/21 02:17:54;;;;;;;;;;;;;;;21.45;54.85;98058.44;2099908;28;1961;-58
2021/10/21 02:18:54;;;;;;;;;;;;;;;21.42;55.11;98064.91;2100088;28;1051;-58
2021/10/21 02:19:54;;;;;;;;;;;;;;;21.39;54.93;98065.16;2100093;28;759;-58
2021/10/21 02:20:55;;;;;;;;;;;;;;;21.42;54.95;98056.00;2100052;28;1048;-58
2021/10/21 02:21:55;;;;;;;;;;;;;;;21.37;54.02;98056.34;2100051;28;766;-58
2021/10/21 02:22:55;;;;;;;;;;;;;;;21.39;55.01;98056.25;2100112;28;865;-59
2021/10/21 02:23:55;;;;;;;;;;;;;;;21.35;55.20;98055.63;2099850;28;888;-58
2021/10/21 02:24:55;;;;;;;;;;;;;;;21.33;54.45;98053.06;2100099;28;751;-58
2021/10/21 02:25:55;;;;;;;;;;;;;;;21.42;54.86;98048.75;2099929;28;893;-59
2021/10/21 02:26:56;;;;;;;;;;;;;;;21.46;53.48;98047.53;2100028;28;834;-58
2021/10/21 02:27:56;;;;;;;;;;;;;;;21.38;55.37;98049.16;2100048;28;985;-58
2021/10/21 02:28:56;;;;;;;;;;;;;;;21.39;55.22;98051.69;2099785;28;810;-58
2021/10/21 02:29:56;;;;;;;;;;;;;;;21.38;54.28;98050.00;2099934;28;1179;-58
2021/10/21 02:30:56;;;;;;;;;;;;;;;21.40;53.52;98057.97;2100041;28;968;-58
2021/10/21 02:31:56;;;;;;;;;;;;;;;21.46;53.17;98049.38;2099968;28;807;-58
2021/10/21 02:32:57;;;;;;;;;;;;;;;21.42;54.25;98046.06;2099982;28;1037;-58
2021/10/21 02:33:57;;;;;;;;;;;;;;;21.42;53.85;98040.69;2099925;28;984;-58
2021/10/21 02:34:57;;;;;;;;;;;;;;;21.36;55.31;98046.56;2099575;28;885;-58
2021/10/21 02:35:57;;;;;;;;;;;;;;;21.41;52.86;98047.03;2099495;28;1016;-58
2021/10/21 02:36:58;;;;;;;;;;;;;;;21.40;52.87;98048.03;2099920;28;1359;-58
2021/10/21 02:37:58;;;;;;;;;;;;;;;21.48;53.14;98034.81;2099897;28;1885;-58
2021/10/21 02:39:00;;;;;;;;;;;;;;;21.38;55.01;98041.06;2099863;28;972;-59
2021/10/21 02:40:01;;;;;;;;;;;;;;;21.31;55.05;98036.19;2099961;28;814;-59
2021/10/21 02:41:01;;;;;;;;;;;;;;;21.35;53.42;98039.47;2099936;28;1000;-58
2021/10/21 02:42:01;;;;;;;;;;;;;;;21.28;55.88;98038.25;2099905;28;877;-59
2021/10/21 02:43:01;;;;;;;;;;;;;;;21.30;55.31;98042.53;2099950;28;870;-59
2021/10/21 02:44:02;;;;;;;;;;;;;;;21.27;54.14;98044.59;2099904;28;799;-60
2021/10/21 02:45:04;;;;;;;;;;;;;;;21.32;55.05;98043.28;2099946;28;798;-58
2021/10/21 02:46:04;;;;;;;;;;;;;;;21.26;54.96;98035.69;2099903;28;782;-59
2021/10/21 02:47:04;;;;;;;;;;;;;;;21.27;55.22;98039.22;2099632;28;984;-58
2021/10/21 02:48:04;;;;;;;;;;;;;;;21.33;53.79;98036.91;2099856;28;751;-58
2021/10/21 02:49:05;;;;;;;;;;;;;;;21.39;53.32;98029.31;2099906;28;942;-59
2021/10/21 02:50:05;;;;;;;;;;;;;;;21.35;55.11;98039.47;2099631;28;816;-58
2021/10/21 02:51:05;;;;;;;;;;;;;;;21.29;55.01;98042.66;2099880;28;977;-58
2021/10/21 02:52:05;;;;;;;;;;;;;;;21.30;55.63;98044.34;2099918;28;762;-59
2021/10/21 02:53:05;;;;;;;;;;;;;;;21.32;55.27;98039.72;2099776;28;977;-58
2021/10/21 02:54:06;;;;;;;;;;;;;;;21.32;55.46;98039.72;2099776;28;843;-58
2021/10/21 02:55:06;;;;;;;;;;;;;;;21.38;54.20;98047.28;2099789;28;981;-58
2021/10/21 02:56:06;;;;;;;;;;;;;;;21.33;54.75;98044.13;2099413;28;1089;-58
2021/10/21 02:57:07;;;;;;;;;;;;;;;21.37;53.88;98042.03;2099838;28;941;-58
2021/10/21 02:58:07;;;;;;;;;;;;;;;21.36;55.10;98043.03;2099696;28;1902;-58
2021/10/21 02:59:07;;;;;;;;;;;;;;;21.30;55.01;98047.06;2099894;28;853;-58
2021/10/21 03:00:09;;;;;;;;;;;;;;;21.29;55.64;98039.97;2099800;28;1010;-58
2021/10/21 03:01:09;;;;;;;;;;;;;;;21.27;55.36;98050.00;2099670;28;802;-59
2021/10/21 03:02:09;;;;;;;;;;;;;;;21.35;54.78;98041.31;2099872;28;850;-58
2021/10/21 03:03:09;;;;;;;;;;;;;;;21.30;54.78;98047.94;2099840;28;976;-58
2021/10/21 03:04:09;;;;;;;;;;;;;;;21.27;55.08;98047.28;2099757;28;767;-58
2021/10/21 03:05:09;;;;;;;;;;;;;;;21.35;54.37;98052.09;2099886;28;922;-59
2021/10/21 03:06:10;;;;;;;;;;;;;;;21.32;54.28;98047.78;2099533;28;1577;-58
2021/10/21 03:07:10;;;;;;;;;;;;;;;21.37;54.67;98048.28;2099798;28;799;-58
2021/10/21 03:08:10;;;;;;;;;;;;;;;21.37;53.94;98053.66;2099835;28;811;-58
2021/10/21 03:09:10;;;;;;;;;;;;;;;21.30;54.56;98047.94;2099559;28;810;-59
2021/10/21 03:10:10;;;;;;;;;;;;;;;21.29;54.11;98050.72;2099757;28;867;-59
2021/10/21 03:11:11;;;;;;;;;;;;;;;21.32;55.14;98050.47;2099756;28;1271;-58
2021/10/21 03:12:11;;;;;;;;;;;;;;;21.36;54.15;98035.78;2099795;28;881;-58
2021/10/21 03:13:11;;;;;;;;;;;;;;;21.27;54.49;98037.41;2099760;28;866;-58
2021/10/21 03:14:11;;;;;;;;;;;;;;;21.26;54.89;98029.44;2099626;28;1039;-58
2021/10/21 03:15:11;;;;;;;;;;;;;;;21.32;55.52;98027.13;2099399;28;818;-58
2021/10/21 03:16:11;;;;;;;;;;;;;;;21.26;55.85;98032.13;2099695;28;814;-59
2021/10/21 03:17:12;;;;;;;;;;;;;;;21.23;54.13;98025.16;2099696;28;1030;-58
2021/10/21 03:18:12;;;;;;;;;;;;;;;21.23;55.02;98032.38;2099385;28;1943;-59
2021/10/21 03:19:12;;;;;;;;;;;;;;;21.23;54.58;98026.97;2099708;28;996;-58
2021/10/21 03:20:13;;;;;;;;;;;;;;;21.26;54.84;98027.59;2099703;28;846;-58
2021/10/21 03:21:13;;;;;;;;;;;;;;;21.20;55.80;98027.25;2099706;28;1347;-58
2021/10/21 03:22:13;;;;;;;;;;;;;;;21.25;55.08;98030.41;2099748;28;775;-59
2021/10/21 03:23:14;;;;;;;;;;;;;;;21.23;54.67;98029.69;2099653;28;1012;-58
2021/10/21 03:24:14;;;;;;;;;;;;;;;21.27;55.54;98028.44;2099770;28;822;-58
2021/10/21 03:25:14;;;;;;;;;;;;;;;21.22;56.31;98022.56;2099655;28;1435;-58
2021/10/21 03:26:14;;;;;;;;;;;;;;;21.31;55.15;98030.78;2099732;28;1440;-58
2021/10/21 03:27:16;;;;;;;;;;;;;;;21.29;55.13;98029.19;2099673;28;993;-58
2021/10/21 03:28:17;;;;;;;;;;;;;;;21.33;55.06;98033.34;2099539;28;814;-58
2021/10/21 03:29:17;;;;;;;;;;;;;;;21.30;53.88;98026.38;2099742;28;948;-58
2021/10/21 03:30:17;;;;;;;;;;;;;;;21.22;54.72;98031.53;2099672;28;1020;-58
2021/10/21 03:31:18;;;;;;;;;;;;;;;21.16;54.17;98023.94;2099478;28;700;-59
2021/10/21 03:32:18;;;;;;;;;;;;;;;21.27;54.99;98036.53;2099692;28;763;-58
2021/10/21 03:33:18;;;;;;;;;;;;;;;21.29;54.77;98040.81;2099700;28;1002;-58
2021/10/21 03:34:18;;;;;;;;;;;;;;;21.23;55.72;98038.63;2099533;28;996;-58
2021/10/21 03:35:19;;;;;;;;;;;;;;;21.20;54.75;98046.94;2099725;28;807;-58
2021/10/21 03:36:19;;;;;;;;;;;;;;;21.20;55.68;98044.25;2099742;28;760;-58
2021/10/21 03:37:19;;;;;;;;;;;;;;;21.17;55.69;98045.38;2099622;28;1181;-59
2021/10/21 03:38:19;;;;;;;;;;;;;;;21.15;55.29;98050.03;2099541;28;1886;-58
2021/10/21 03:39:19;;;;;;;;;;;;;;;21.14;55.21;98048.31;2099362;28;1430;-58
2021/10/21 03:40:19;;;;;;;;;;;;;;;21.22;55.25;98049.50;2099658;28;992;-59
2021/10/21 03:41:20;;;;;;;;;;;;;;;21.23;54.72;98045.81;2099682;28;800;-59
2021/10/21 03:42:21;;;;;;;;;;;;;;;21.23;55.21;98038.63;2099669;28;840;-58
2021/10/21 03:43:23;;;;;;;;;;;;;;;21.25;55.07;98039.34;2099678;28;809;-59
2021/10/21 03:44:23;;;;;;;;;;;;;;;21.35;54.22;98036.78;2099614;28;814;-58
2021/10/21 03:45:23;;;;;;;;;;;;;;;21.25;55.22;98038.47;2099646;28;1226;-58
2021/10/21 03:46:23;;;;;;;;;;;;;;;21.14;55.68;98037.53;2099542;28;984;-58
2021/10/21 03:47:24;;;;;;;;;;;;;;;21.27;54.42;98031.16;2101274;28;779;-58
2021/10/21 03:48:24;;;;;;;;;;;;;;;21.26;54.42;98030.31;2101319;28;798;-58
2021/10/21 03:49:24;;;;;;;;;;;;;;;21.27;54.28;98025.75;2101186;28;1043;-59
2021/10/21 03:50:25;;;;;;;;;;;;;;;21.24;54.91;98026.00;2101224;28;984;-58
2021/10/21 03:51:25;;;;;;;;;;;;;;;21.27;55.11;98026.63;2101169;28;1156;-58
2021/10/21 03:52:26;;;;;;;;;;;;;;;21.20;55.55;98029.94;2100961;28;802;-58
2021/10/21 03:53:26;;;;;;;;;;;;;;;21.16;56.24;98024.81;2101289;28;901;-58
2021/10/21 03:54:26;;;;;;;;;;;;;;;21.16;55.38;98029.31;2101107;28;977;-59
2021/10/21 03:55:26;;;;;;;;;;;;;;;21.17;54.91;98026.53;2101146;28;671;-58
2021/10/21 03:56:26;;;;;;;;;;;;;;;21.20;54.75;98029.94;2101132;28;1131;-58
2021/10/21 03:57:26;;;;;;;;;;;;;;;21.18;55.46;98020.16;2101086;28;788;-58
2021/10/21 03:58:27;;;;;;;;;;;;;;;21.22;54.17;98020.75;2101220;28;1905;-58
2021/10/21 03:59:27;;;;;;;;;;;;;;;21.24;54.72;98020.63;2101157;28;779;-58
2021/10/21 04:00:27;;;;;;;;;;;;;;;21.23;54.43;98019.78;2101217;28;767;-59
2021/10/21 04:01:28;;;;;;;;;;;;;;;21.18;54.66;98014.78;2101172;28;1016;-58
2021/10/21 04:02:28;;;;;;;;;;;;;;;21.26;55.05;98019.53;2100768;28;899;-59
2021/10/21 04:03:28;;;;;;;;;;;;;;;21.31;54.07;98021.84;2101128;28;1043;-58
2021/10/21 04:04:28;;;;;;;;;;;;;;;22.08;53.87;98014.69;2101189;28;1007;-58
2021/10/21 04:05:29;;;;;;;;;;;;;;;22.45;51.78;98011.59;2100827;28;1001;-58
2021/10/21 04:06:29;;;;;;;;;;;;;;;22.56;52.27;98010.66;2101118;28;806;-59
2021/10/21 04:07:29;;;;;;;;;;;;;;;22.65;51.75;98015.28;2101189;28;1500;-58
2021/10/21 04:08:30;;;;;;;;;;;;;;;22.74;52.25;98010.91;2101166;28;852;-59
2021/10/21 04:09:30;;;;;;;;;;;;;;;22.86;51.35;98008.13;2101078;28;1200;-59
2021/10/21 04:10:30;;;;;;;;;;;;;;;22.92;52.11;98008.47;2101057;28;968;-59
2021/10/21 04:11:30;;;;;;;;;;;;;;;22.92;52.28;98004.91;2100832;28;1059;-59
2021/10/21 04:12:31;;;;;;;;;;;;;;;23.05;50.16;98004.66;2101115;28;853;-58
2021/10/21 04:13:32;;;;;;;;;;;;;;;23.21;49.98;97990.69;2100945;28;794;-57
2021/10/21 04:14:32;;;;;;;;;;;;;;;23.30;50.42;98002.53;2100710;28;782;-57
2021/10/21 04:15:32;;;;;;;;;;;;;;;23.31;49.81;98001.53;2101034;28;783;-57
2021/10/21 04:16:32;;;;;;;;;;;;;;;23.36;50.33;98002.81;2100973;28;753;-57
2021/10/21 04:17:33;;;;;;;;;;;;;;;23.40;50.28;97995.31;2100824;28;1299;-57
2021/10/21 04:18:33;;;;;;;;;;;;;;;23.44;52.73;97991.34;2100948;28;1894;-57
2021/10/21 04:19:33;;;;;;;;;;;;;;;23.50;50.87;97987.22;2101004;28;980;-58
2021/10/21 04:20:33;;;;;;;;;;;;;;;23.56;51.28;97994.78;2100131;28;771;-57
2021/10/21 04:21:33;;;;;;;;;;;;;;;23.53;50.42;97990.50;2100455;28;775;-58
2021/10/21 04:22:34;;;;;;;;;;;;;;;23.59;51.70;97996.31;2101043;28;968;-57
2021/10/21 04:23:34;;;;;;;;;;;;;;;23.60;51.33;97992.63;2100973;28;759;-58
2021/10/21 04:24:35;;;;;;;;;;;;;;;23.70;51.10;97993.50;2101053;28;815;-57
2021/10/21 04:25:35;;;;;;;;;;;;;;;23.76;52.00;97987.53;2100873;28;1024;-56
2021/10/21 04:26:35;;;;;;;;;;;;;;;23.79;51.88;97992.66;2101013;28;816;-57
2021/10/21 04:27:35;;;;;;;;;;;;;;;23.76;51.92;97990.25;2100977;28;858;-56
2021/10/21 04:28:35;;;;;;;;;;;;;;;23.78;52.40;97993.66;2100919;28;972;-57
2021/10/21 04:29:36;;;;;;;;;;;;;;;23.84;50.21;97992.25;2100953;28;1013;-57
2021/10/21 04:30:36;;;;;;;;;;;;;;;23.98;51.25;97989.16;2100884;28;980;-58
2021/10/21 04:31:36;;;;;;;;;;;;;;;23.94;50.65;97992.25;2100951;28;1010;-58
2021/10/21 04:32:36;;;;;;;;;;;;;;;23.96;49.71;97993.81;2100901;28;957;-58
2021/10/21 04:33:37;;;;;;;;;;;;;;;23.99;51.32;97995.44;2100951;28;790;-58
2021/10/21 04:34:37;;;;;;;;;;;;;;;24.03;50.23;97987.88;2100811;28;805;-58
2021/10/21 04:35:37;;;;;;;;;;;;;;;24.04;49.89;97986.88;2100834;28;885;-58
2021/10/21 04:36:37;;;;;;;;;;;;;;;24.11;49.46;97988.00;2100869;28;1059;-58
2021/10/21 04:37:37;;;;;;;;;;;;;;;24.09;49.71;97985.47;2100764;28;1184;-58
2021/10/21 04:38:37;;;;;;;;;;;;;;;24.14;49.79;97982.31;2100786;28;1957;-59
2021/10/21 04:39:38;;;;;;;;;;;;;;;24.10;49.78;97987.19;2100881;28;830;-58
2021/10/21 04:40:38;;;;;;;;;;;;;;;24.11;51.36;97993.41;2100789;28;810;-59
2021/10/21 04:41:38;;;;;;;;;;;;;;;24.10;50.84;97998.00;2100808;28;1196;-58
2021/10/21 04:42:38;;;;;;;;;;;;;;;24.15;50.29;97996.69;2100849;28;784;-58
2021/10/21 04:43:38;;;;;;;;;;;;;;;24.11;53.17;97999.69;2100836;28;1008;-58
2021/10/21 04:44:42;;;;;;;;;;;;;;;24.14;49.58;98003.94;2100869;28;996;-60
2021/10/21 04:45:42;;;;;;;;;;;;;;;24.19;51.55;98001.69;2100753;28;811;-58
2021/10/21 04:46:42;;;;;;;;;;;;;;;24.24;52.71;98009.34;2100665;28;876;-58
2021/10/21 04:47:43;;;;;;;;;;;;;;;24.24;52.46;98004.81;2100806;28;854;-58
2021/10/21 04:48:43;;;;;;;;;;;;;;;24.22;52.82;98003.22;2100751;28;854;-58
2021/10/21 04:49:44;;;;;;;;;;;;;;;24.26;49.85;98007.34;2100764;28;968;-59
2021/10/21 04:50:44;;;;;;;;;;;;;;;24.25;49.18;97997.53;2100773;28;878;-58
2021/10/21 04:51:45;;;;;;;;;;;;;;;24.31;52.44;97999.66;2100678;28;858;-58
2021/10/21 04:52:45;;;;;;;;;;;;;;;24.34;52.25;97998.53;2100752;28;771;-58
2021/10/21 04:53:45;;;;;;;;;;;;;;;24.25;49.88;97997.53;2100734;28;1004;-58
2021/10/21 04:54:45;;;;;;;;;;;;;;;24.29;51.62;97996.25;2100707;28;850;-58
2021/10/21 04:55:45;;;;;;;;;;;;;;;24.35;49.22;97995.69;2100751;28;984;-58
2021/10/21 04:56:46;;;;;;;;;;;;;;;24.32;52.36;97995.13;2100547;28;1073;-58
2021/10/21 04:57:46;;;;;;;;;;;;;;;24.23;48.97;98002.22;2100648;28;965;-59
2021/10/21 04:58:46;;;;;;;;;;;;;;;24.26;51.38;97993.84;2099808;28;1910;-59
2021/10/21 04:59:46;;;;;;;;;;;;;;;24.29;51.63;97988.13;2100503;28;846;-58
2021/10/21 05:00:46;;;;;;;;;;;;;;;24.35;50.98;97986.72;2100729;28;985;-58
2021/10/21 05:01:46;;;;;;;;;;;;;;;24.31;52.18;97983.44;2100741;28;771;-59
2021/10/21 05:02:47;;;;;;;;;;;;;;;24.32;50.79;97977.03;2100712;28;1334;-58
2021/10/21 05:03:48;;;;;;;;;;;;;;;24.35;50.00;97984.84;2100728;28;764;-58
2021/10/21 05:04:48;;;;;;;;;;;;;;;24.37;53.69;97979.31;2100448;28;893;-58
2021/10/21 05:05:48;;;;;;;;;;;;;;;24.42;51.06;97977.03;2100589;28;890;-58
2021/10/21 05:06:48;;;;;;;;;;;;;;;24.40;54.19;97969.03;2100588;28;1105;-58
2021/10/21 05:07:49;;;;;;;;;;;;;;;24.39;52.25;97972.75;2100525;28;858;-58
2021/10/21 05:08:49;;;;;;;;;;;;;;;24.39;51.88;97970.03;2100641;28;810;-58
2021/10/21 05:09:49;;;;;;;;;;;;;;;24.42;51.45;97968.91;2100637;28;989;-59
2021/10/21 05:10:49;;;;;;;;;;;;;;;24.46;51.13;97966.75;2100572;28;1309;-58
2021/10/21 05:11:49;;;;;;;;;;;;;;;24.36;53.69;97964.91;2100614;28;901;-58
2021/10/21 05:12:49;;;;;;;;;;;;;;;24.40;51.94;97962.81;2100624;28;1028;-58
2021/10/21 05:13:49;;;;;;;;;;;;;;;24.39;54.41;97961.94;2100417;28;981;-58
2021/10/21 05:14:50;;;;;;;;;;;;;;;24.44;51.30;97969.59;2100551;28;820;-58
2021/10/21 05:15:50;;;;;;;;;;;;;;;24.40;51.72;97969.03;2100468;28;904;-59
2021/10/21 05:16:50;;;;;;;;;;;;;;;24.50;52.69;97970.88;2100491;28;763;-58
2021/10/21 05:17:50;;;;;;;;;;;;;;;24.56;52.16;97978.41;2100534;28;961;-58
2021/10/21 05:18:51;;;;;;;;;;;;;;;24.50;51.69;97970.88;2100376;28;1890;-58
2021/10/21 05:19:51;;;;;;;;;;;;;;;24.46;53.68;97974.88;2100546;28;905;-58
2021/10/21 05:20:51;;;;;;;;;;;;;;;24.46;53.43;97975.72;2100636;28;977;-58
2021/10/21 05:21:51;;;;;;;;;;;;;;;24.50;49.84;97965.47;2100489;28;1047;-58